Flight Track Log - Related Links

Times and Time Zones

All times are in EDT time to prevent confusion due to time zone crossing. See the UAL582 flight status page for this flight to view local times or setup timezone preferences in your user account.


Time Position Orientation Groundspeed Altitude Reporting Facility
EDT Latitude Longitude Course Direction KTS MPH feet Rate Location/Type
Wed 05:44:58 PM 43.6833 -79.6333 324° Northwest 130 150 2,200  Level Toronto Center
Wed 05:45:58 PM 43.7333 -79.6833 324° Northwest 200 230 3,900 1,800 Climbing Toronto Center
Wed 05:46:58 PM 43.7667 -79.7500 305° West 260 299 5,800 3,000 Climbing Toronto Center
Wed 05:47:58 PM 43.7667 -79.8333 270° West 250 288 9,900 3,000 Climbing Toronto Center
Wed 05:48:58 PM 43.7500 -79.9333 257° West 260 299 11,800 2,200 Climbing Toronto Center
Wed 05:49:58 PM 43.7500 -80.0667 270° West 310 357 14,300 2,300 Climbing Toronto Center
Wed 05:50:58 PM 43.7500 -80.1833 270° West 330 380 16,400 2,500 Climbing Toronto Center
Wed 05:51:58 PM 43.7500 -80.3333 270° West 350 403 19,300 2,650 Climbing Toronto Center
Wed 05:52:58 PM 43.7500 -80.4667 270° West 340 391 21,700 2,350 Climbing Toronto Center
Wed 05:53:58 PM 43.7333 -80.5833 259° West 340 391 24,000 1,950 Climbing Toronto Center
Wed 05:54:58 PM 43.7333 -80.7167 270° West 340 391 25,600 1,200 Climbing Toronto Center
Wed 05:55:58 PM 43.7167 -80.8500 260° West 360 414 26,400 800 Climbing Toronto Center
Wed 05:56:58 PM 43.7000 -81.0000 261° West 370 426 27,200 1,000 Climbing Toronto Center
Wed 05:57:58 PM 43.6667 -81.1333 251° West 380 437 28,400 1,200 Climbing Toronto Center
Wed 05:58:58 PM 43.6333 -81.2667 251° West 390 449 29,600 1,650 Climbing Toronto Center
Wed 05:59:58 PM 43.5833 -81.4000 243° Southwest 370 426 31,700 1,650 Climbing Toronto Center
Wed 06:00:58 PM 43.5667 -81.5500 261° West 370 426 32,900 1,250 Climbing Toronto Center
Wed 06:01:58 PM 43.5333 -81.6833 251° West 370 426 34,200 1,200 Climbing Toronto Center
Wed 06:02:58 PM 43.5000 -81.8000 249° West 370 426 35,300 800 Climbing Toronto Center
Wed 06:03:58 PM 43.4500 -81.9333 243° Southwest 370 426 35,800 350 Climbing Toronto Center
Wed 06:04:58 PM 43.4167 -82.0667 251° West 380 437 36,000 88 Climbing Toronto Center
Wed 06:06:14 PM 43.3839 -82.2514 256° West 385 443 36,000  Level Cleveland Center
Wed 06:06:58 PM 43.3333 -82.3667 239° Southwest 390 449 36,000  Level Toronto Center
Wed 06:07:58 PM 43.3000 -82.5000 251° West 390 449 36,000  Level Toronto Center
Wed 06:08:58 PM 43.2667 -82.6333 251° West 390 449 36,000  Level Toronto Center
Wed 06:09:14 PM 43.2686 -82.6703 274° West 385 443 36,000  Level Cleveland Center
Wed 06:10:14 PM 43.2306 -82.8086 249° West 390 449 36,000  Level Cleveland Center
Wed 06:11:14 PM 43.1925 -82.9494 250° West 390 449 36,000  Level Cleveland Center
Wed 06:12:14 PM 43.1519 -83.0875 248° West 390 449 36,000  Level Cleveland Center
Wed 06:13:14 PM 43.1136 -83.2253 249° West 390 449 36,000  Level Cleveland Center
Wed 06:14:14 PM 43.0750 -83.3600 249° West 390 449 36,000 -350 Level Cleveland Center
Wed 06:15:14 PM 43.0361 -83.4975 249° West 390 449 35,300 -950 Descending Cleveland Center
Wed 06:16:14 PM 42.9992 -83.6350 250° West 384 442 34,100 -1,200 Descending Cleveland Center
Wed 06:17:14 PM 42.9622 -83.7722 250° West 384 442 32,900 -1,050 Descending Cleveland Center
Wed 06:18:14 PM 42.9475 -83.9189 262° West 389 448 32,000 -450 Descending Cleveland Center
Wed 06:19:14 PM 42.9322 -84.0856 263° West 407 468 32,000  Level Cleveland Center
Wed 06:20:14 PM 42.9172 -84.2350 262° West 407 468 32,000  Level Cleveland Center
Wed 06:21:58 PM 42.8833 -84.4833 260° West 400 460 32,000  Level Toronto Center
Wed 06:22:19 PM 42.8914 -84.5131 290° West 398 458 32,000  Level Chicago Center
Wed 06:23:21 PM 42.8731 -84.6908 262° West 395 455 32,000  Level Chicago Center
Wed 06:24:23 PM 42.8575 -84.8403 262° West 398 458 32,000  Level Chicago Center
Wed 06:25:25 PM 42.8417 -84.9889 262° West 397 457 32,000  Level Chicago Center
Wed 06:26:27 PM 42.8261 -85.1378 262° West 398 458 32,000  Level Chicago Center
Wed 06:27:29 PM 42.8097 -85.2878 262° West 399 459 32,000  Level Chicago Center
Wed 06:28:31 PM 42.7931 -85.4400 262° West 405 466 32,000 -1,113 Level Chicago Center
Wed 06:29:33 PM 42.7653 -85.6186 258° West 400 460 29,700 -2,226 Descending Chicago Center
Wed 06:30:35 PM 42.7383 -85.7650 256° West 398 458 27,400 -2,468 Descending Chicago Center
Wed 06:31:37 PM 42.7122 -85.9086 256° West 391 450 24,600 -2,544 Descending Chicago Center
Wed 06:32:40 PM 42.6864 -86.0500 256° West 385 443 22,100 -2,160 Descending Chicago Center
Wed 06:33:42 PM 42.6619 -86.1847 256° West 370 426 20,100 -1,016 Descending Chicago Center
Wed 06:34:44 PM 42.6381 -86.3144 256° West 355 409 20,000 -581 Descending Chicago Center
Wed 06:35:46 PM 42.6131 -86.4408 255° West 348 400 18,900 -1,500 Descending Chicago Center
Wed 06:36:48 PM 42.5847 -86.5933 256° West 347 399 16,900 -1,839 Descending Chicago Center
Wed 06:37:50 PM 42.5628 -86.7158 256° West 338 389 15,100 -1,742 Descending Chicago Center
Wed 06:38:52 PM 42.5317 -86.8331 250° West 334 384 13,300 -1,597 Descending Chicago Center
Wed 06:39:54 PM 42.5003 -86.9475 250° West 328 377 11,800 -1,452 Descending Chicago Center
Wed 06:40:56 PM 42.4692 -87.0581 249° West 317 365 10,300 -1,210 Descending Chicago Center
Wed 06:41:58 PM 42.4153 -87.1292 224° Southwest 288 331 9,300 -1,344 Descending Chicago Center
Wed 06:43:01 PM 42.3372 -87.1961 212° Southwest 280 322 7,500 -1,488 Descending Chicago Center
Wed 06:44:03 PM 42.2717 -87.2533 213° Southwest 269 310 6,200 -1,210 Descending Chicago Center
Wed 06:45:05 PM 42.2125 -87.3042 212° Southwest 256 295 5,000 -1,016 Descending Chicago Center
Wed 06:46:07 PM 42.1547 -87.3558 214° Southwest 252 290 4,100 -659 Descending Chicago Center
Wed 06:46:36 PM 42.1167 -87.3833 208° Southwest 251 289 4,000 -67 Descending Chicago TRACON
Wed 06:47:36 PM 42.0667 -87.4333 217° Southwest 250 288 4,000  Level Chicago TRACON
Wed 06:48:36 PM 42.0167 -87.5167 231° Southwest 245 282 4,000  Level Chicago TRACON
Wed 06:49:37 PM 42.0167 -87.6000 270° West 243 280 4,000  Level Chicago TRACON

Login

Don't have an account? Register now (free) for customized features, flight alerts, and more!